createdAt,value
2019-06-08T00:00:46.578Z,34.23
2019-06-08T00:01:47.403Z,34.41
2019-06-08T00:02:47.819Z,34.44
2019-06-08T00:03:48.130Z,34.23
2019-06-08T00:04:48.452Z,34.45
2019-06-08T00:05:48.659Z,34.48
2019-06-08T00:06:48.665Z,34.40
2019-06-08T00:07:48.981Z,34.37
2019-06-08T00:08:49.728Z,34.39
2019-06-08T00:09:49.095Z,34.31
2019-06-08T00:10:49.958Z,34.31
2019-06-08T00:11:50.132Z,34.40
2019-06-08T00:12:50.144Z,34.69
2019-06-08T00:13:50.663Z,34.44
2019-06-08T00:14:50.356Z,34.54
2019-06-08T00:15:50.217Z,34.49
2019-06-08T00:16:50.980Z,34.33
2019-06-08T00:17:51.338Z,34.45
2019-06-08T00:18:51.158Z,34.59
2019-06-08T00:19:52.026Z,34.45
2019-06-08T00:20:52.137Z,34.59
2019-06-08T00:21:52.245Z,34.42
2019-06-08T00:22:52.463Z,34.53
2019-06-08T00:23:52.781Z,34.72
2019-06-08T00:24:52.646Z,34.58
2019-06-08T00:25:53.295Z,34.66
2019-06-08T00:26:53.507Z,34.63
2019-06-08T00:27:53.519Z,34.51
2019-06-08T00:28:53.367Z,34.47
2019-06-08T00:30:54.158Z,34.32
2019-06-08T00:31:54.157Z,34.32
2019-06-08T00:32:55.080Z,34.33
2019-06-08T00:33:55.296Z,34.44
2019-06-08T00:34:55.161Z,34.22
2019-06-08T00:35:55.916Z,33.83
2019-06-08T00:36:56.133Z,33.82
2019-06-08T00:37:56.358Z,33.66
2019-06-08T00:38:56.455Z,33.86
2019-06-08T00:39:56.363Z,33.50
2019-06-08T00:40:57.602Z,33.69
2019-06-08T00:41:56.985Z,33.87
2019-06-08T00:42:57.501Z,33.84
2019-06-08T00:43:57.713Z,33.94
2019-06-08T00:44:57.575Z,33.63
2019-06-08T00:45:57.996Z,33.83
2019-06-08T00:46:58.863Z,33.70
2019-06-08T00:47:59.273Z,33.64
2019-06-08T00:48:59.325Z,33.63
2019-06-08T00:49:59.693Z,33.68
2019-06-08T00:51:00.117Z,33.52
2019-06-08T00:52:00.330Z,33.60
2019-06-08T00:53:00.305Z,33.51
2019-06-08T00:54:00.953Z,33.57
2019-06-08T00:55:01.700Z,33.43
2019-06-08T00:56:01.805Z,33.27
2019-06-08T00:57:02.205Z,33.23
2019-06-08T00:58:02.484Z,33.33
2019-06-08T00:59:02.732Z,33.56
2019-06-08T01:00:10.376Z,33.53
2019-06-08T01:01:03.273Z,33.55
2019-06-08T01:02:03.594Z,33.74
2019-06-08T01:03:03.471Z,33.66
2019-06-08T01:04:03.902Z,33.83
2019-06-08T01:05:04.420Z,33.85
2019-06-08T01:06:04.620Z,33.87
2019-06-08T01:07:04.014Z,33.74
2019-06-08T01:08:05.058Z,34.02
2019-06-08T01:09:05.165Z,34.11
2019-06-08T01:10:05.071Z,34.03
2019-06-08T01:11:05.160Z,33.69
2019-06-08T01:12:05.577Z,33.82
2019-06-08T01:13:05.864Z,34.14
2019-06-08T01:14:05.812Z,33.74
2019-06-08T01:15:06.402Z,34.09
2019-06-08T01:16:06.633Z,34.12
2019-06-08T01:17:06.873Z,34.29
2019-06-08T01:18:07.254Z,34.24
2019-06-08T01:19:07.672Z,34.09
2019-06-08T01:20:08.218Z,34.57
2019-06-08T01:21:07.931Z,34.65
2019-06-08T01:22:08.765Z,34.19
2019-06-08T01:23:08.208Z,34.42
2019-06-08T01:24:09.060Z,34.28
2019-06-08T01:25:09.047Z,34.46
2019-06-08T01:26:09.984Z,34.25
2019-06-08T01:27:09.873Z,34.34
2019-06-08T01:28:10.600Z,34.41
2019-06-08T01:29:10.608Z,34.48
2019-06-08T01:30:10.621Z,34.25
2019-06-08T01:31:10.832Z,34.27
2019-06-08T01:32:11.338Z,34.25
2019-06-08T01:33:11.149Z,34.42
2019-06-08T01:34:11.146Z,34.48
2019-06-08T01:35:11.970Z,34.32
2019-06-08T01:36:12.193Z,34.44
2019-06-08T01:37:12.602Z,34.70
2019-06-08T01:38:12.814Z,34.58
2019-06-08T01:39:13.021Z,33.09
2019-06-08T01:40:13.443Z,34.13
2019-06-08T01:41:13.236Z,34.34
2019-06-08T01:42:14.125Z,34.04
2019-06-08T01:43:14.067Z,34.46
2019-06-08T01:45:15.418Z,34.42
2019-06-08T01:46:15.093Z,34.23
2019-06-08T01:47:15.535Z,34.39
2019-06-08T01:48:19.954Z,34.12
2019-06-08T01:49:15.392Z,34.46
2019-06-08T01:50:16.782Z,33.55
2019-06-08T01:51:16.492Z,33.86
2019-06-08T01:52:16.515Z,34.22
2019-06-08T01:53:17.410Z,34.20
2019-06-08T01:54:17.629Z,34.27
2019-06-08T01:55:18.043Z,34.38
2019-06-08T01:56:18.471Z,34.50
2019-06-08T01:57:18.804Z,34.33
2019-06-08T01:58:18.838Z,34.32
2019-06-08T01:59:19.341Z,34.15
2019-06-08T02:00:29.739Z,34.38
2019-06-08T02:01:19.399Z,34.46
2019-06-08T02:02:19.876Z,34.62
2019-06-08T02:03:20.183Z,34.46
2019-06-08T02:04:20.142Z,34.71
2019-06-08T02:05:20.523Z,34.98
2019-06-08T02:06:20.826Z,34.38
2019-06-08T02:07:21.153Z,34.22
2019-06-08T02:08:21.815Z,34.87
2019-06-08T02:09:22.062Z,35.06
2019-06-08T02:10:22.230Z,35.14
2019-06-08T02:11:22.323Z,34.68
2019-06-08T02:12:22.203Z,35.10
2019-06-08T02:13:23.055Z,35.32
2019-06-08T02:15:23.038Z,34.64
2019-06-08T02:16:23.214Z,35.10
2019-06-08T02:17:23.719Z,34.22
2019-06-08T02:18:36.622Z,35.05
2019-06-08T02:19:23.586Z,34.63
2019-06-08T02:20:24.196Z,34.53
2019-06-08T02:21:24.760Z,34.47
2019-06-08T02:22:24.271Z,34.89
2019-06-08T02:23:25.088Z,34.71
2019-06-08T02:24:25.099Z,33.52
2019-06-08T02:25:27.291Z,33.70
2019-06-08T02:26:27.590Z,34.62
2019-06-08T02:27:27.217Z,33.63
2019-06-08T02:28:27.418Z,34.36
2019-06-08T02:29:27.429Z,34.80
2019-06-08T02:30:28.278Z,34.53
2019-06-08T02:31:28.017Z,34.71
2019-06-08T02:32:28.633Z,34.51
2019-06-08T02:34:28.907Z,33.94
2019-06-08T02:35:28.446Z,33.64
2019-06-08T02:36:31.077Z,35.07
2019-06-08T02:37:30.801Z,33.38
2019-06-08T02:38:31.602Z,34.04
2019-06-08T02:39:30.391Z,33.74
2019-06-08T02:40:30.286Z,35.00
2019-06-08T02:41:30.810Z,34.39
2019-06-08T02:42:32.633Z,35.38
2019-06-08T02:43:30.848Z,35.40
2019-06-08T02:44:32.075Z,34.90
2019-06-08T02:45:32.134Z,34.03
2019-06-08T02:46:33.158Z,35.10
2019-06-08T02:47:32.552Z,35.35
2019-06-08T02:48:33.613Z,35.17
2019-06-08T02:49:33.143Z,34.73
2019-06-08T02:50:33.076Z,35.10
2019-06-08T02:51:34.327Z,34.37
2019-06-08T02:52:34.329Z,34.74
2019-06-08T02:53:34.130Z,34.69
2019-06-08T02:54:35.339Z,33.59
2019-06-08T02:55:35.666Z,34.54
2019-06-08T02:56:34.289Z,33.57
2019-06-08T02:57:35.585Z,34.64
2019-06-08T02:58:36.989Z,34.46
2019-06-08T02:59:35.655Z,33.97
2019-06-08T03:00:35.603Z,34.65
2019-06-08T03:01:36.158Z,34.42
2019-06-08T03:02:36.964Z,34.47
2019-06-08T03:03:38.365Z,33.80
2019-06-08T03:04:38.120Z,33.09
2019-06-08T03:05:38.117Z,34.67
2019-06-08T03:06:39.445Z,34.15
2019-06-08T03:07:38.959Z,34.70
2019-06-08T03:08:38.973Z,35.15
2019-06-08T03:09:38.647Z,35.18
2019-06-08T03:10:39.264Z,35.28
2019-06-08T03:11:39.264Z,34.50
2019-06-08T03:12:40.352Z,34.49
2019-06-08T03:13:40.352Z,34.13
2019-06-08T03:14:40.172Z,34.92
2019-06-08T03:15:41.541Z,33.66
2019-06-08T03:16:41.517Z,34.12
2019-06-08T03:17:41.892Z,33.54
2019-06-08T03:18:42.381Z,33.95
2019-06-08T03:19:41.943Z,34.01
2019-06-08T03:20:42.420Z,33.63
2019-06-08T03:21:42.321Z,33.68
2019-06-08T03:22:43.876Z,33.45
2019-06-08T03:23:43.506Z,33.11
2019-06-08T03:24:44.141Z,34.23
2019-06-08T03:25:51.942Z,33.07
2019-06-08T03:26:44.096Z,33.86
2019-06-08T03:27:43.140Z,34.24
2019-06-08T03:28:44.367Z,34.36
2019-06-08T03:29:44.089Z,33.09
2019-06-08T03:30:52.828Z,33.87
2019-06-08T03:31:54.647Z,34.37
2019-06-08T03:32:50.545Z,34.11
2019-06-08T03:33:53.139Z,33.26
2019-06-08T03:34:54.779Z,34.08
2019-06-08T03:35:56.039Z,33.60
2019-06-08T03:36:54.475Z,33.35
2019-06-08T03:37:44.890Z,33.74
2019-06-08T03:38:45.661Z,34.01
2019-06-08T03:39:45.861Z,34.57
2019-06-08T03:41:46.386Z,32.71
2019-06-08T03:42:46.246Z,34.51
2019-06-08T03:43:46.932Z,34.02
2019-06-08T03:44:47.264Z,33.74
2019-06-08T03:45:47.090Z,34.53
2019-06-08T03:46:48.099Z,34.57
2019-06-08T03:47:48.389Z,33.73
2019-06-08T03:48:48.596Z,34.05
2019-06-08T03:49:56.397Z,34.37
2019-06-08T03:50:49.325Z,34.17
2019-06-08T03:51:49.641Z,33.83
2019-06-08T03:52:50.012Z,34.57
2019-06-08T03:53:49.930Z,34.62
2019-06-08T03:54:50.469Z,34.39
2019-06-08T03:55:50.269Z,34.23
2019-06-08T03:56:51.095Z,32.48
2019-06-08T03:57:51.720Z,33.97
2019-06-08T03:58:51.173Z,34.48
2019-06-08T03:59:51.933Z,34.77
2019-06-08T04:00:52.455Z,34.42
2019-06-08T04:01:51.788Z,33.82
2019-06-08T04:02:52.369Z,33.91
2019-06-08T04:03:52.489Z,32.97
2019-06-08T04:04:52.474Z,33.99
2019-06-08T04:05:52.792Z,32.80
2019-06-08T04:06:53.105Z,33.62
2019-06-08T04:07:53.944Z,33.14
2019-06-08T04:08:53.806Z,34.02
2019-06-08T04:09:54.668Z,33.92
2019-06-08T04:10:55.083Z,34.60
2019-06-08T04:11:54.919Z,34.37
2019-06-08T04:12:55.242Z,34.43
2019-06-08T04:13:55.589Z,34.77
2019-06-08T04:14:55.989Z,34.86
2019-06-08T04:15:56.649Z,35.02
2019-06-08T04:16:56.958Z,33.51
2019-06-08T04:17:56.912Z,33.77
2019-06-08T04:18:57.409Z,33.82
2019-06-08T04:20:10.234Z,34.04
2019-06-08T04:20:58.167Z,33.06
2019-06-08T04:21:58.858Z,34.47
2019-06-08T04:22:59.352Z,34.42
2019-06-08T04:23:59.166Z,33.63
2019-06-08T04:24:59.170Z,34.37
2019-06-08T04:26:00.434Z,32.99
2019-06-08T04:26:59.486Z,33.73
2019-06-08T04:27:59.693Z,34.55
2019-06-08T04:29:00.006Z,34.42
2019-06-08T04:30:00.210Z,34.32
2019-06-08T04:31:00.293Z,33.66
2019-06-08T04:32:00.437Z,33.84
2019-06-08T04:33:00.508Z,34.53
2019-06-08T04:34:00.666Z,33.10
2019-06-08T04:35:01.073Z,33.34
2019-06-08T04:36:01.343Z,33.52
2019-06-08T04:37:01.707Z,33.29
2019-06-08T04:38:01.722Z,33.36
2019-06-08T04:39:01.753Z,34.21
2019-06-08T04:40:01.647Z,34.59
2019-06-08T04:41:02.464Z,33.97
2019-06-08T04:42:02.661Z,33.19
2019-06-08T04:43:02.865Z,33.64
2019-06-08T04:44:03.093Z,34.52
2019-06-08T04:45:03.471Z,34.24
2019-06-08T04:46:03.500Z,33.70
2019-06-08T04:47:03.709Z,34.09
2019-06-08T04:48:04.111Z,34.38
2019-06-08T04:49:04.950Z,33.41
2019-06-08T04:50:20.939Z,33.80
2019-06-08T04:51:04.999Z,32.53
2019-06-08T04:52:04.971Z,33.49
2019-06-08T04:53:05.597Z,33.63
2019-06-08T04:54:06.096Z,32.96
2019-06-08T04:55:06.236Z,34.10
2019-06-08T04:56:06.741Z,33.62
2019-06-08T04:57:06.132Z,34.37
2019-06-08T04:58:06.649Z,34.45
2019-06-08T04:59:06.766Z,33.99
2019-06-08T05:00:12.211Z,34.36
2019-06-08T05:01:07.178Z,34.70
2019-06-08T05:02:07.789Z,34.24
2019-06-08T05:03:08.214Z,33.74
2019-06-08T05:04:08.102Z,33.98
2019-06-08T05:05:08.960Z,34.26
2019-06-08T05:06:09.161Z,35.56
2019-06-08T05:07:09.168Z,33.38
2019-06-08T05:08:09.457Z,33.58
2019-06-08T05:09:09.998Z,35.68
2019-06-08T05:10:09.491Z,35.56
2019-06-08T05:11:09.609Z,35.66
2019-06-08T05:13:09.988Z,34.60
2019-06-08T05:14:10.096Z,35.44
2019-06-08T05:15:10.327Z,35.72
2019-06-08T05:16:10.522Z,32.48
2019-06-08T05:17:10.400Z,35.10
2019-06-08T05:18:10.946Z,35.77
2019-06-08T05:19:10.778Z,34.09
2019-06-08T05:20:11.678Z,35.40
2019-06-08T05:21:12.079Z,35.46
2019-06-08T05:22:12.150Z,35.28
2019-06-08T05:23:12.822Z,34.92
2019-06-08T05:24:12.173Z,35.43
2019-06-08T05:25:12.930Z,35.19
2019-06-08T05:26:12.818Z,35.96
2019-06-08T05:27:13.771Z,34.28
2019-06-08T05:28:14.393Z,34.70
2019-06-08T05:29:14.213Z,35.54
2019-06-08T05:30:14.521Z,35.27
2019-06-08T05:31:14.811Z,34.11
2019-06-08T05:32:15.435Z,35.71
2019-06-08T05:33:14.784Z,35.64
2019-06-08T05:34:15.548Z,34.91
2019-06-08T05:35:16.201Z,34.60
2019-06-08T05:36:15.646Z,35.31
2019-06-08T05:37:16.327Z,35.21
2019-06-08T05:38:16.505Z,35.92
2019-06-08T05:39:16.515Z,36.04
2019-06-08T05:40:17.231Z,34.78
2019-06-08T05:41:16.970Z,36.27
2019-06-08T05:42:17.448Z,36.00
2019-06-08T05:43:17.378Z,36.59
2019-06-08T05:44:17.565Z,36.03
2019-06-08T05:45:17.561Z,36.17
2019-06-08T05:46:18.035Z,35.81
2019-06-08T05:47:18.927Z,35.85
2019-06-08T05:48:18.835Z,35.04
2019-06-08T05:49:19.232Z,34.49
2019-06-08T05:50:19.978Z,34.78
2019-06-08T05:51:20.583Z,34.32
2019-06-08T05:52:20.585Z,33.98
2019-06-08T05:53:20.333Z,35.50
2019-06-08T05:54:21.106Z,35.57
2019-06-08T05:55:21.120Z,36.19
2019-06-08T05:56:21.323Z,35.13
2019-06-08T05:57:21.187Z,35.37
2019-06-08T05:58:21.749Z,36.13
2019-06-08T05:59:22.066Z,34.98
2019-06-08T06:00:21.909Z,35.29
2019-06-08T06:01:22.598Z,35.54
2019-06-08T06:02:22.587Z,36.55
2019-06-08T06:03:22.914Z,36.77
2019-06-08T06:04:23.336Z,35.71
2019-06-08T06:05:23.172Z,36.41
2019-06-08T06:06:23.846Z,35.75
2019-06-08T06:07:23.855Z,36.43
2019-06-08T06:08:23.876Z,36.79
2019-06-08T06:09:23.754Z,37.36
2019-06-08T06:10:24.163Z,37.36
2019-06-08T06:11:24.713Z,37.09
2019-06-08T06:12:24.564Z,37.13
2019-06-08T06:13:24.868Z,36.28
2019-06-08T06:14:25.161Z,36.65
2019-06-08T06:15:26.057Z,36.05
2019-06-08T06:16:26.585Z,36.52
2019-06-08T06:17:26.273Z,36.38
2019-06-08T06:18:26.277Z,36.51
2019-06-08T06:19:26.188Z,37.53
2019-06-08T06:20:26.946Z,37.21
2019-06-08T06:21:26.765Z,36.94
2019-06-08T06:22:27.086Z,37.73
2019-06-08T06:23:27.955Z,37.16
2019-06-08T06:24:28.271Z,36.98
2019-06-08T06:25:28.481Z,36.50
2019-06-08T06:26:28.588Z,36.43
2019-06-08T06:27:28.805Z,37.56
2019-06-08T06:28:29.037Z,36.09
2019-06-08T06:29:29.124Z,35.78
2019-06-08T06:30:29.314Z,35.41
2019-06-08T06:31:29.860Z,36.94
2019-06-08T06:32:31.189Z,37.44
2019-06-08T06:33:31.298Z,37.55
2019-06-08T06:34:29.555Z,37.42
2019-06-08T06:35:30.083Z,37.62
2019-06-08T06:36:30.396Z,37.96
2019-06-08T06:37:30.254Z,38.06
2019-06-08T06:38:30.926Z,38.28
2019-06-08T06:39:31.336Z,38.16
2019-06-08T06:40:31.100Z,38.42
2019-06-08T06:41:31.402Z,38.47
2019-06-08T06:42:32.277Z,36.25
2019-06-08T06:43:32.493Z,38.05
2019-06-08T06:44:32.806Z,37.26
2019-06-08T06:45:32.681Z,37.11
2019-06-08T06:46:33.089Z,37.44
2019-06-08T06:47:33.544Z,34.23
2019-06-08T06:48:34.274Z,36.53
2019-06-08T06:49:34.576Z,35.64
2019-06-08T06:50:34.684Z,37.31
2019-06-08T06:51:34.803Z,36.19
2019-06-08T06:52:35.109Z,37.16
2019-06-08T06:53:35.127Z,37.94
2019-06-08T06:54:35.070Z,36.40
2019-06-08T06:55:35.538Z,35.37
2019-06-08T06:56:36.385Z,37.16
2019-06-08T06:57:37.037Z,36.39
2019-06-08T06:58:36.994Z,36.83
2019-06-08T06:59:37.008Z,36.65
2019-06-08T07:00:37.496Z,37.80
2019-06-08T07:01:38.476Z,36.93
2019-06-08T07:02:38.416Z,35.32
2019-06-08T07:03:39.191Z,36.77
2019-06-08T07:04:39.144Z,35.87
2019-06-08T07:05:39.809Z,37.61
2019-06-08T07:06:40.022Z,36.47
2019-06-08T07:07:39.871Z,35.81
2019-06-08T07:08:42.048Z,35.93
2019-06-08T07:09:41.298Z,38.01
2019-06-08T07:10:41.296Z,38.51
2019-06-08T07:11:41.987Z,37.59
2019-06-08T07:12:41.794Z,34.97
2019-06-08T07:13:42.003Z,37.49
2019-06-08T07:14:42.011Z,38.42
2019-06-08T07:15:42.083Z,38.61
2019-06-08T07:16:42.947Z,38.65
2019-06-08T07:17:42.543Z,36.66
2019-06-08T07:18:42.857Z,37.34
2019-06-08T07:20:43.446Z,38.59
2019-06-08T07:21:43.061Z,38.20
2019-06-08T07:23:43.708Z,39.03
2019-06-08T07:24:43.772Z,39.05
2019-06-08T07:25:44.299Z,38.76
2019-06-08T07:26:44.448Z,36.97
2019-06-08T07:27:44.044Z,37.90
2019-06-08T07:28:44.665Z,38.65
2019-06-08T07:29:44.672Z,38.74
2019-06-08T07:30:45.047Z,38.82
2019-06-08T07:31:46.926Z,37.79
2019-06-08T07:32:46.517Z,38.79
2019-06-08T07:33:46.790Z,39.04
2019-06-08T07:34:46.702Z,39.20
2019-06-08T07:35:46.852Z,39.29
2019-06-08T07:36:48.459Z,39.64
2019-06-08T07:37:48.977Z,39.44
2019-06-08T07:38:48.687Z,40.02
2019-06-08T07:39:48.880Z,39.43
2019-06-08T07:40:48.814Z,39.32
2019-06-08T07:41:50.136Z,39.23
2019-06-08T07:42:49.699Z,38.84
2019-06-08T07:43:49.535Z,38.76
2019-06-08T07:44:49.342Z,36.71
2019-06-08T07:45:49.925Z,37.82
2019-06-08T07:46:51.400Z,37.94
2019-06-08T07:47:52.012Z,38.21
2019-06-08T07:48:52.217Z,37.95
2019-06-08T07:49:51.190Z,38.16
2019-06-08T07:50:52.251Z,39.51
2019-06-08T07:52:04.067Z,39.65
2019-06-08T07:52:52.785Z,36.72
2019-06-08T07:53:51.597Z,38.26
2019-06-08T07:54:52.879Z,37.74
2019-06-08T07:55:51.906Z,38.15
2019-06-08T07:56:52.880Z,37.91
2019-06-08T07:57:52.272Z,37.51
2019-06-08T07:58:53.272Z,38.44
2019-06-08T07:59:54.214Z,37.11
2019-06-08T08:00:54.362Z,38.05
2019-06-08T08:01:53.930Z,37.31
2019-06-08T08:02:54.332Z,37.10
2019-06-08T08:03:54.154Z,39.27
2019-06-08T08:04:54.593Z,39.71
2019-06-08T08:05:55.036Z,40.77
2019-06-08T08:06:54.866Z,40.06
2019-06-08T08:07:55.067Z,39.48
2019-06-08T08:08:54.956Z,39.95
2019-06-08T08:09:56.665Z,39.68
2019-06-08T08:10:56.711Z,39.59
2019-06-08T08:11:57.148Z,39.46
2019-06-08T08:12:56.906Z,40.26
2019-06-08T08:13:57.436Z,40.74
2019-06-08T08:14:58.080Z,40.86
2019-06-08T08:15:58.999Z,40.50
2019-06-08T08:16:57.288Z,38.84
2019-06-08T08:17:57.811Z,39.71
2019-06-08T08:18:58.101Z,40.42
2019-06-08T08:19:59.377Z,40.58
2019-06-08T08:21:09.157Z,39.17
2019-06-08T08:22:02.353Z,38.89
2019-06-08T08:23:05.568Z,39.43
2019-06-08T08:24:01.497Z,37.34
2019-06-08T08:25:04.115Z,38.12
2019-06-08T08:26:01.893Z,38.19
2019-06-08T08:27:03.512Z,38.78
2019-06-08T08:28:01.736Z,38.56
2019-06-08T08:29:03.222Z,37.82
2019-06-08T08:30:02.260Z,38.54
2019-06-08T08:31:04.993Z,38.69
2019-06-08T08:32:03.648Z,37.65
2019-06-08T08:33:07.837Z,37.77
2019-06-08T08:34:05.524Z,37.76
2019-06-08T08:35:03.260Z,38.43
2019-06-08T08:36:03.123Z,39.03
2019-06-08T08:37:06.470Z,39.05
2019-06-08T08:38:04.780Z,39.18
2019-06-08T08:39:04.681Z,38.37
2019-06-08T08:40:04.381Z,37.78
2019-06-08T08:41:08.277Z,39.01
2019-06-08T08:42:05.457Z,39.55
2019-06-08T08:43:05.193Z,38.56
2019-06-08T08:44:07.978Z,39.00
2019-06-08T08:45:08.769Z,39.42
2019-06-08T08:46:07.651Z,37.95
2019-06-08T08:47:07.638Z,38.96
2019-06-08T08:49:10.405Z,36.78
2019-06-08T08:50:07.406Z,37.32
2019-06-08T08:51:08.553Z,38.25
2019-06-08T08:52:11.222Z,38.65
2019-06-08T08:53:08.366Z,39.28
2019-06-08T08:54:08.469Z,40.13
2019-06-08T08:55:08.533Z,39.05
2019-06-08T08:56:07.508Z,38.25
2019-06-08T08:57:08.691Z,39.13
2019-06-08T08:58:08.649Z,38.90
2019-06-08T08:59:10.703Z,38.53
2019-06-08T09:00:09.149Z,39.89
2019-06-08T09:01:09.021Z,40.72
2019-06-08T09:02:11.551Z,41.26
2019-06-08T09:03:28.014Z,40.55
2019-06-08T09:04:09.510Z,39.48
2019-06-08T09:05:11.217Z,40.08
2019-06-08T09:06:10.184Z,40.02
2019-06-08T09:07:10.824Z,39.27
2019-06-08T09:08:10.858Z,41.15
2019-06-08T09:09:11.329Z,41.48
2019-06-08T09:10:11.826Z,41.49
2019-06-08T09:11:11.956Z,40.51
2019-06-08T09:12:12.170Z,41.15
2019-06-08T09:13:12.325Z,40.85
2019-06-08T09:14:14.261Z,38.84
2019-06-08T09:15:12.953Z,38.25
2019-06-08T09:16:13.633Z,39.66
2019-06-08T09:17:13.433Z,39.66
2019-06-08T09:18:13.847Z,40.78
2019-06-08T09:19:13.967Z,40.30
2019-06-08T09:20:15.928Z,40.38
2019-06-08T09:21:14.074Z,39.62
2019-06-08T09:22:14.805Z,40.21
2019-06-08T09:23:19.337Z,39.13
2019-06-08T09:24:15.289Z,39.63
2019-06-08T09:25:17.973Z,39.52
2019-06-08T09:26:17.629Z,39.28
2019-06-08T09:27:17.904Z,39.56
2019-06-08T09:28:18.526Z,37.82
2019-06-08T09:29:18.759Z,39.25
2019-06-08T09:30:18.391Z,38.35
2019-06-08T09:31:18.712Z,39.89
2019-06-08T09:32:18.000Z,40.52
2019-06-08T09:33:18.810Z,40.53
2019-06-08T09:34:19.373Z,40.75
2019-06-08T09:35:20.952Z,40.29
2019-06-08T09:36:18.472Z,40.22
2019-06-08T09:37:18.612Z,40.04
2019-06-08T09:38:19.408Z,40.72
2019-06-08T09:39:19.211Z,40.13
2019-06-08T09:40:19.061Z,39.40
2019-06-08T09:41:19.795Z,37.24
2019-06-08T09:42:21.244Z,40.09
2019-06-08T09:43:20.047Z,39.93
2019-06-08T09:44:20.585Z,40.34
2019-06-08T09:45:21.603Z,39.65
2019-06-08T09:46:21.368Z,39.00
2019-06-08T09:47:22.332Z,38.37
2019-06-08T09:48:25.186Z,39.42
2019-06-08T09:49:28.011Z,39.83
2019-06-08T09:50:23.608Z,39.60
2019-06-08T09:51:30.555Z,39.52
2019-06-08T09:52:28.209Z,40.21
2019-06-08T09:53:31.906Z,40.78
2019-06-08T09:54:23.821Z,38.93
2019-06-08T09:55:25.524Z,39.73
2019-06-08T09:56:30.206Z,39.95
2019-06-08T09:57:24.044Z,39.23
2019-06-08T09:58:24.150Z,39.75
2019-06-08T09:59:24.583Z,40.56
2019-06-08T10:00:26.358Z,40.94
2019-06-08T10:01:24.800Z,39.06
2019-06-08T10:02:28.156Z,37.20
2019-06-08T10:03:30.954Z,39.60
2019-06-08T10:04:29.202Z,40.04
2019-06-08T10:05:27.569Z,39.54
2019-06-08T10:06:27.103Z,39.12
2019-06-08T10:07:31.059Z,39.90
2019-06-08T10:08:31.005Z,39.10
2019-06-08T10:10:26.794Z,39.89
2019-06-08T10:11:28.044Z,38.85
2019-06-08T10:12:28.223Z,40.01
2019-06-08T10:13:28.058Z,40.53
2019-06-08T10:14:28.854Z,39.76
2019-06-08T10:15:28.145Z,40.05
2019-06-08T10:16:30.695Z,40.19
2019-06-08T10:17:28.779Z,39.17
2019-06-08T10:18:29.201Z,38.52
2019-06-08T10:19:29.918Z,39.86
2019-06-08T10:20:30.832Z,38.30
2019-06-08T10:21:29.521Z,40.39
2019-06-08T10:22:29.854Z,40.60
2019-06-08T10:23:34.223Z,38.36
2019-06-08T10:24:30.012Z,40.53
2019-06-08T10:25:30.981Z,40.72
2019-06-08T10:26:30.824Z,40.73
2019-06-08T10:27:31.723Z,39.92
2019-06-08T10:28:32.120Z,40.00
2019-06-08T10:29:32.128Z,39.35
2019-06-08T10:30:33.293Z,37.62
2019-06-08T10:31:39.019Z,39.23
2019-06-08T10:32:33.117Z,37.36
2019-06-08T10:33:33.420Z,39.28
2019-06-08T10:34:34.105Z,39.81
2019-06-08T10:35:33.885Z,39.68
2019-06-08T10:36:34.671Z,39.83
2019-06-08T10:37:34.650Z,39.10
2019-06-08T10:38:35.148Z,39.57
2019-06-08T10:39:35.022Z,40.31
2019-06-08T10:40:35.486Z,39.12
2019-06-08T10:41:35.893Z,40.01
2019-06-08T10:42:39.876Z,40.34
2019-06-08T10:43:38.297Z,40.78
2019-06-08T10:44:38.177Z,37.54
2019-06-08T10:45:37.358Z,39.54
2019-06-08T10:46:40.346Z,38.90
2019-06-08T10:47:37.944Z,39.70
2019-06-08T10:48:37.950Z,40.53
2019-06-08T10:49:38.410Z,39.54
2019-06-08T10:50:37.914Z,40.24
2019-06-08T10:51:40.831Z,41.07
2019-06-08T10:52:39.124Z,41.06
2019-06-08T10:53:46.560Z,39.73
2019-06-08T10:54:39.358Z,40.09
2019-06-08T10:55:40.845Z,39.58
2019-06-08T10:56:39.883Z,40.47
2019-06-08T10:57:40.017Z,40.05
2019-06-08T10:58:40.009Z,41.52
2019-06-08T10:59:40.459Z,42.33
2019-06-08T11:00:39.816Z,40.67
2019-06-08T11:01:40.222Z,41.42
2019-06-08T11:02:40.779Z,42.39
2019-06-08T11:03:40.982Z,42.40
2019-06-08T11:04:43.406Z,41.64
2019-06-08T11:05:41.498Z,40.08
2019-06-08T11:06:41.484Z,40.63
2019-06-08T11:07:42.717Z,41.30
2019-06-08T11:08:42.125Z,42.10
2019-06-08T11:09:42.966Z,42.14
2019-06-08T11:10:43.277Z,42.81
2019-06-08T11:11:43.315Z,43.07
2019-06-08T11:12:44.126Z,42.24
2019-06-08T11:13:44.050Z,41.93
2019-06-08T11:14:45.058Z,41.37
2019-06-08T11:15:44.861Z,40.48
2019-06-08T11:16:47.448Z,41.19
2019-06-08T11:17:45.372Z,41.71
2019-06-08T11:18:45.239Z,41.76
2019-06-08T11:19:47.972Z,39.83
2019-06-08T11:20:47.895Z,41.97
2019-06-08T11:21:48.106Z,41.90
2019-06-08T11:22:49.787Z,40.28
2019-06-08T11:24:04.537Z,41.54
2019-06-08T11:24:48.551Z,41.62
2019-06-08T11:25:48.898Z,40.84
2019-06-08T11:26:47.956Z,42.06
2019-06-08T11:27:47.677Z,40.85
2019-06-08T11:28:51.104Z,41.22
2019-06-08T11:29:48.365Z,41.49
2019-06-08T11:30:48.879Z,41.76
2019-06-08T11:31:51.019Z,41.93
2019-06-08T11:32:48.850Z,40.93
2019-06-08T11:33:49.311Z,41.19
2019-06-08T11:34:49.795Z,40.08
2019-06-08T11:35:49.793Z,41.23
2019-06-08T11:36:51.505Z,41.56
2019-06-08T11:37:50.503Z,41.51
2019-06-08T11:38:50.329Z,40.92
2019-06-08T11:39:51.256Z,40.98
2019-06-08T11:40:51.360Z,40.61
2019-06-08T11:41:51.217Z,40.73
2019-06-08T11:42:51.783Z,38.96
2019-06-08T11:43:52.205Z,39.56
2019-06-08T11:44:52.513Z,41.53
2019-06-08T11:45:52.514Z,40.93
2019-06-08T11:46:52.449Z,41.41
2019-06-08T11:47:53.250Z,41.70
2019-06-08T11:48:53.103Z,41.92
2019-06-08T11:49:53.987Z,42.11
2019-06-08T11:50:54.608Z,42.04
2019-06-08T11:51:53.961Z,44.02
2019-06-08T11:52:54.260Z,44.68
2019-06-08T11:53:55.130Z,44.54
2019-06-08T11:54:57.353Z,43.15
2019-06-08T11:55:58.370Z,44.56
2019-06-08T11:56:57.605Z,43.99
2019-06-08T11:57:58.577Z,45.14
2019-06-08T11:58:57.921Z,44.51
2019-06-08T11:59:58.475Z,42.92
2019-06-08T12:01:00.798Z,42.28
2019-06-08T12:01:58.584Z,43.91
2019-06-08T12:02:58.140Z,42.60
2019-06-08T12:03:58.003Z,41.77
2019-06-08T12:04:57.979Z,41.29
2019-06-08T12:05:58.897Z,42.31
2019-06-08T12:06:59.326Z,40.34
2019-06-08T12:07:59.381Z,41.25
2019-06-08T12:09:00.408Z,40.11
2019-06-08T12:10:00.253Z,40.10
2019-06-08T12:11:01.970Z,41.45
2019-06-08T12:12:00.876Z,40.07
2019-06-08T12:13:00.968Z,41.17
2019-06-08T12:14:00.383Z,41.50
2019-06-08T12:15:03.003Z,43.01
2019-06-08T12:16:02.947Z,40.97
2019-06-08T12:17:03.050Z,41.50
2019-06-08T12:18:03.366Z,42.06
2019-06-08T12:19:04.359Z,43.02
2019-06-08T12:20:03.358Z,42.38
2019-06-08T12:21:03.791Z,42.89
2019-06-08T12:22:01.924Z,39.16
2019-06-08T12:23:03.967Z,40.31
2019-06-08T12:24:04.170Z,41.58
2019-06-08T12:25:03.890Z,41.25
2019-06-08T12:26:04.080Z,42.19
2019-06-08T12:27:14.185Z,41.35
2019-06-08T12:28:04.547Z,42.32
2019-06-08T12:29:05.094Z,43.95
2019-06-08T12:30:08.792Z,44.04
2019-06-08T12:31:04.767Z,41.87
2019-06-08T12:32:04.835Z,42.21
2019-06-08T12:33:04.916Z,41.78
2019-06-08T12:34:05.167Z,41.40
2019-06-08T12:35:05.159Z,42.50
2019-06-08T12:36:06.083Z,40.06
2019-06-08T12:37:08.776Z,42.67
2019-06-08T12:38:09.506Z,42.01
2019-06-08T12:39:05.882Z,42.13
2019-06-08T12:40:09.350Z,39.24
2019-06-08T12:41:09.178Z,38.77
2019-06-08T12:42:11.303Z,39.79
2019-06-08T12:43:09.384Z,39.94
2019-06-08T12:44:09.355Z,41.36
2019-06-08T12:45:07.365Z,39.69
2019-06-08T12:46:10.615Z,40.34
2019-06-08T12:47:12.611Z,40.95
2019-06-08T12:48:10.330Z,41.74
2019-06-08T12:49:08.625Z,40.94
2019-06-08T12:50:11.061Z,41.73
2019-06-08T12:51:11.581Z,41.16
2019-06-08T12:52:12.063Z,39.83
2019-06-08T12:53:13.398Z,42.42
2019-06-08T12:54:11.153Z,41.89
2019-06-08T12:55:14.459Z,41.33
2019-06-08T12:56:11.772Z,42.72
2019-06-08T12:57:13.805Z,42.98
2019-06-08T12:58:11.670Z,41.06
2019-06-08T12:59:14.577Z,41.23
2019-06-08T13:00:13.172Z,42.14
2019-06-08T13:01:12.756Z,41.58
2019-06-08T13:02:15.752Z,41.28
2019-06-08T13:03:12.953Z,41.37
2019-06-08T13:04:12.036Z,42.48
2019-06-08T13:05:15.555Z,42.88
2019-06-08T13:06:14.033Z,43.29